Time;durP1;ratioP1;P1;durP2;ratioP2;P2;SDS_P1;SDS_P2;PMS_P1;PMS_P2;Temp;Humidity;BMP_temperature;BMP_pressure;BME280_temperature;BME280_humidity;BME280_pressure;Samples;Min_cycle;Max_cycle;Signal;HPM_P1;HPM_P2
2021/07/25 00:01:45;;;;;;;19.53;17.68;;;;;;;19.97;58.73;100150.69;128171;1097;22371;-77
2021/07/25 00:04:15;;;;;;;23.30;18.43;;;;;;;19.93;59.00;100146.84;128156;1098;22369;-76
2021/07/25 00:06:45;;;;;;;20.97;18.87;;;;;;;19.90;58.94;100141.95;128163;1098;22363;-76
2021/07/25 00:09:14;;;;;;;20.00;18.18;;;;;;;19.87;59.09;100143.23;128208;1096;22658;-79
2021/07/25 00:11:44;;;;;;;19.30;17.45;;;;;;;19.85;58.96;100134.59;128198;1098;22388;-78
2021/07/25 00:14:13;;;;;;;19.55;17.65;;;;;;;19.82;59.20;100134.25;128193;1098;22417;-78
2021/07/25 00:16:43;;;;;;;20.25;18.13;;;;;;;19.78;59.18;100138.45;128184;1098;23009;-78
2021/07/25 00:19:13;;;;;;;21.55;17.58;;;;;;;19.78;59.32;100141.94;128154;1098;22372;-77
2021/07/25 00:21:42;;;;;;;19.20;17.50;;;;;;;19.78;59.39;100135.77;128156;1098;22389;-77
2021/07/25 00:24:12;;;;;;;21.58;18.00;;;;;;;19.78;58.92;100133.09;128200;1097;24590;-77
2021/07/25 00:26:48;;;;;;;21.03;18.05;;;;;;;19.75;59.28;100135.17;128224;1098;22382;-77
2021/07/25 00:29:18;;;;;;;21.28;18.95;;;;;;;19.73;59.35;100137.30;128148;1098;22373;-77
2021/07/25 00:31:48;;;;;;;20.43;18.35;;;;;;;19.69;59.44;100133.45;128161;1098;22362;-76
2021/07/25 00:34:18;;;;;;;20.15;18.15;;;;;;;19.65;59.40;100129.59;128203;1098;22363;-76
2021/07/25 00:36:47;;;;;;;20.58;18.60;;;;;;;19.61;59.49;100138.30;128182;1096;22370;-76
2021/07/25 00:39:17;;;;;;;21.20;18.08;;;;;;;19.57;59.92;100137.95;128199;1096;24512;-76
2021/07/25 00:41:46;;;;;;;20.13;18.10;;;;;;;19.52;59.63;100146.67;128186;1098;24243;-76
2021/07/25 00:44:17;;;;;;;19.58;17.78;;;;;;;19.48;59.72;100139.34;128213;1097;22402;-76
2021/07/25 00:46:57;;;;;;;21.93;19.28;;;;;;;19.44;59.92;100135.50;128256;1098;22377;-77
2021/07/25 00:49:28;;;;;;;20.35;18.18;;;;;;;19.42;60.60;100140.25;128158;1098;24589;-77
2021/07/25 00:51:58;;;;;;;21.10;18.90;;;;;;;19.40;60.16;100129.78;128199;1098;22372;-77
2021/07/25 00:54:28;;;;;;;21.80;19.60;;;;;;;19.38;60.48;100126.51;128181;1098;22365;-76
2021/07/25 00:56:57;;;;;;;20.30;17.75;;;;;;;19.37;60.57;100124.08;128146;1097;22374;-76
2021/07/25 00:59:27;;;;;;;21.43;19.33;;;;;;;19.35;60.78;100121.61;128195;1096;22390;-76
2021/07/25 01:01:57;;;;;;;20.30;18.30;;;;;;;19.34;60.69;100125.34;128185;1098;22369;-76
2021/07/25 01:04:51;;;;;;;22.78;19.10;;;;;;;19.33;60.89;100121.05;128189;1098;24259;-76
2021/07/25 01:07:34;;;;;;;21.85;19.15;;;;;;;19.30;60.87;100118.83;128153;1096;25371;-76
2021/07/25 01:10:25;;;;;;;22.10;18.38;;;;;;;19.28;60.86;100105.65;128218;1096;22370;-76
2021/07/25 01:13:04;;;;;;;22.70;20.55;;;;;;;19.25;61.04;100107.98;128234;1098;22370;-75
2021/07/25 01:15:34;;;;;;;21.88;18.85;;;;;;;19.22;61.07;100106.56;128219;1098;24256;-77
2021/07/25 01:18:04;;;;;;;22.00;20.03;;;;;;;19.19;61.36;100096.34;128212;1098;22359;-76
2021/07/25 01:20:34;;;;;;;21.48;19.35;;;;;;;19.17;61.44;100095.75;128139;1098;22391;-76
2021/07/25 01:23:04;;;;;;;22.65;20.45;;;;;;;19.16;61.49;100095.96;127922;1098;22438;-76
2021/07/25 01:25:35;;;;;;;21.98;20.00;;;;;;;19.13;61.74;100091.09;127939;1098;22372;-76
2021/07/25 01:28:23;;;;;;;23.20;21.00;;;;;;;19.10;61.59;100089.69;127932;1098;22388;-77
2021/07/25 01:30:57;;;;;;;24.43;21.97;;;;;;;19.05;61.40;100085.00;128013;1098;22399;-77
2021/07/25 01:33:31;;;;;;;26.10;23.35;;;;;;;19.01;61.65;100083.84;127963;1098;22373;-77
2021/07/25 01:36:02;;;;;;;25.23;22.68;;;;;;;18.99;61.90;100087.78;127951;1098;22398;-76
2021/07/25 01:38:31;;;;;;;25.03;22.53;;;;;;;18.96;61.97;100074.85;127957;1098;22372;-76
2021/07/25 01:41:15;;;;;;;24.68;22.53;;;;;;;18.92;62.07;100074.50;128005;1098;24514;-76
2021/07/25 01:43:49;;;;;;;23.48;21.28;;;;;;;18.88;62.38;100067.17;128179;1097;22381;-76
2021/07/25 01:46:18;;;;;;;23.80;21.48;;;;;;;18.86;62.08;100062.06;128264;1098;22810;-75
2021/07/25 01:48:48;;;;;;;24.95;22.25;;;;;;;18.85;62.44;100054.24;128212;1098;22369;-76
2021/07/25 01:51:18;;;;;;;23.35;21.15;;;;;;;18.83;62.60;100067.02;128136;1098;24511;-76
2021/07/25 01:53:47;;;;;;;25.08;22.68;;;;;;;18.81;62.55;100068.08;128163;1098;23152;-78
2021/07/25 01:56:17;;;;;;;24.28;21.60;;;;;;;18.79;62.50;100066.67;128253;1096;22394;-76
2021/07/25 01:58:46;;;;;;;22.53;20.45;;;;;;;18.76;62.82;100065.28;128193;1098;22373;-76
2021/07/25 02:01:16;;;;;;;23.98;21.48;;;;;;;18.74;62.79;100055.84;128174;1097;22367;-76
2021/07/25 02:03:46;;;;;;;25.15;21.18;;;;;;;18.73;62.89;100062.25;128180;1098;22466;-77
2021/07/25 02:06:16;;;;;;;24.28;21.88;;;;;;;18.71;63.19;100059.76;128174;1098;24498;-77
2021/07/25 02:08:46;;;;;;;23.88;20.85;;;;;;;18.69;63.13;100067.19;128215;1097;22837;-76
2021/07/25 02:11:15;;;;;;;25.33;22.35;;;;;;;18.66;63.31;100059.64;128192;1096;22363;-76
2021/07/25 02:13:45;;;;;;;23.38;20.90;;;;;;;18.63;63.16;100059.28;128189;1098;22362;-76
2021/07/25 02:16:15;;;;;;;23.23;20.93;;;;;;;18.57;63.22;100069.03;128205;1096;22370;-76
2021/07/25 02:18:44;;;;;;;25.43;22.48;;;;;;;18.55;63.57;100077.27;128155;1098;24519;-77
2021/07/25 02:21:14;;;;;;;25.20;22.23;;;;;;;18.55;63.74;100071.09;128187;1098;24514;-77
2021/07/25 02:23:43;;;;;;;24.05;21.75;;;;;;;18.58;63.89;100076.00;128225;1098;22388;-76
2021/07/25 02:26:13;;;;;;;24.58;22.25;;;;;;;18.58;63.88;100073.33;128219;1098;22367;-77
2021/07/25 02:28:43;;;;;;;25.28;22.75;;;;;;;18.56;63.72;100070.89;128236;1098;22376;-76
2021/07/25 02:31:12;;;;;;;25.58;23.23;;;;;;;18.52;63.86;100067.02;128247;1098;24535;-76
2021/07/25 02:33:42;;;;;;;25.03;22.53;;;;;;;18.48;63.89;100073.05;128189;1098;22370;-77
2021/07/25 02:36:12;;;;;;;24.43;22.13;;;;;;;18.45;64.29;100074.31;128207;1098;22372;-77
2021/07/25 02:38:41;;;;;;;27.30;24.60;;;;;;;18.44;64.33;100082.58;128261;1098;22388;-78
2021/07/25 02:41:11;;;;;;;25.80;23.38;;;;;;;18.42;64.73;100074.77;128230;1097;22899;-77
2021/07/25 02:43:40;;;;;;;26.28;23.93;;;;;;;18.40;64.73;100071.52;128190;1098;24532;-77
2021/07/25 02:46:10;;;;;;;27.40;24.78;;;;;;;18.37;64.28;100073.83;128156;1098;24496;-77
2021/07/25 02:48:40;;;;;;;27.53;24.93;;;;;;;18.32;64.78;100061.11;128181;1098;22369;-77
2021/07/25 02:51:09;;;;;;;27.90;24.93;;;;;;;18.26;64.68;100064.69;128119;1098;22385;-77
2021/07/25 02:53:39;;;;;;;27.23;24.70;;;;;;;18.20;64.74;100069.09;128011;1098;22370;-76
2021/07/25 02:56:09;;;;;;;28.73;25.93;;;;;;;18.18;65.23;100067.68;128205;1098;24505;-76
2021/07/25 02:58:38;;;;;;;27.90;25.10;;;;;;;18.16;65.08;100059.90;128188;1098;22363;-76
2021/07/25 03:01:13;;;;;;;28.00;25.40;;;;;;;18.13;65.45;100073.71;128198;1098;22718;-75
2021/07/25 03:03:44;;;;;;;28.45;25.55;;;;;;;18.09;65.26;100070.67;128232;1098;24256;-76
2021/07/25 03:06:14;;;;;;;29.47;26.47;;;;;;;18.08;65.37;100071.69;128170;1098;22376;-76
2021/07/25 03:08:43;;;;;;;28.60;25.95;;;;;;;18.06;65.40;100072.95;128175;1098;22362;-76
2021/07/25 03:11:13;;;;;;;29.95;27.03;;;;;;;18.05;66.09;100076.67;128148;1096;22395;-76
2021/07/25 03:13:43;;;;;;;29.35;26.15;;;;;;;18.03;65.82;100073.42;128189;1098;22383;-75
2021/07/25 03:16:12;;;;;;;30.93;27.63;;;;;;;18.01;65.86;100067.47;128141;1098;22381;-76
2021/07/25 03:18:42;;;;;;;27.88;25.23;;;;;;;18.01;66.35;100067.47;128130;1098;22373;-77
2021/07/25 03:21:11;;;;;;;29.45;26.88;;;;;;;18.02;65.89;100069.09;128177;1098;22388;-76
2021/07/25 03:23:41;;;;;;;27.78;24.93;;;;;;;18.01;66.31;100064.80;128188;1097;22392;-76
2021/07/25 03:26:11;;;;;;;29.38;26.43;;;;;;;18.00;66.23;100066.66;128162;1097;23898;-77
2021/07/25 03:28:40;;;;;;;28.03;25.60;;;;;;;18.01;66.56;100078.16;128155;1098;22417;-75
2021/07/25 03:31:10;;;;;;;29.27;26.30;;;;;;;18.01;66.31;100064.80;128154;1096;23140;-76
2021/07/25 03:33:40;;;;;;;29.63;26.28;;;;;;;18.01;66.48;100068.28;128149;1098;22388;-76
2021/07/25 03:36:09;;;;;;;28.35;25.68;;;;;;;18.01;66.41;100072.81;128152;1097;24268;-76
2021/07/25 03:38:39;;;;;;;26.68;24.20;;;;;;;17.99;66.50;100070.35;128191;1098;22812;-76
2021/07/25 03:41:09;;;;;;;29.38;26.43;;;;;;;18.00;66.47;100074.67;128188;1098;24271;-76
2021/07/25 03:43:38;;;;;;;29.00;26.05;;;;;;;17.98;66.60;100066.05;128218;1097;22372;-76
2021/07/25 03:46:09;;;;;;;29.30;26.25;;;;;;;18.01;66.70;100064.80;128179;1098;22957;-76
2021/07/25 03:48:40;;;;;;;31.90;27.23;;;;;;;18.02;66.97;100067.23;128212;1098;22374;-76
2021/07/25 03:51:11;;;;;;;30.10;24.03;;;;;;;18.05;66.95;100063.30;128173;1098;22412;-77
2021/07/25 03:53:41;;;;;;;29.55;26.68;;;;;;;18.07;67.00;100064.72;128192;1098;22706;-76
2021/07/25 03:56:11;;;;;;;27.40;24.83;;;;;;;18.07;66.41;100053.22;128188;1097;24518;-75
2021/07/25 03:58:41;;;;;;;27.25;24.88;;;;;;;18.07;66.58;100059.38;128168;1098;22382;-76
2021/07/25 04:01:11;;;;;;;28.48;25.90;;;;;;;18.07;66.44;100055.89;128119;1097;24804;-76
2021/07/25 04:03:41;;;;;;;28.18;25.38;;;;;;;18.10;67.02;100058.93;128136;1098;23012;-76
2021/07/25 04:06:10;;;;;;;28.00;25.43;;;;;;;18.15;66.84;100065.45;128124;1098;22378;-76
2021/07/25 04:08:40;;;;;;;28.40;25.63;;;;;;;18.21;66.95;100061.89;128233;1098;22394;-76
2021/07/25 04:11:17;;;;;;;27.00;24.25;;;;;;;18.23;67.09;100063.30;128169;1098;22464;-75
2021/07/25 04:13:48;;;;;;;33.18;26.83;;;;;;;18.28;67.25;100063.42;128260;1098;22410;-75
2021/07/25 04:16:18;;;;;;;28.88;26.03;;;;;;;18.36;67.09;100073.02;128245;1097;22372;-76
2021/07/25 04:18:47;;;;;;;28.88;26.33;;;;;;;18.40;67.25;100074.19;128168;1098;22394;-76
2021/07/25 04:21:17;;;;;;;28.93;26.23;;;;;;;18.44;66.80;100077.23;128140;1097;22843;-75
2021/07/25 04:23:47;;;;;;;28.95;26.05;;;;;;;18.50;66.33;100079.00;128165;1098;22373;-75
2021/07/25 04:26:16;;;;;;;29.13;26.38;;;;;;;18.52;66.76;100071.55;128127;1098;22394;-75
2021/07/25 04:28:46;;;;;;;28.63;25.98;;;;;;;18.57;66.95;100077.86;128137;1098;22379;-75
2021/07/25 04:31:16;;;;;;;27.80;25.38;;;;;;;18.62;66.96;100077.17;128153;1097;22391;-75
2021/07/25 04:33:51;;;;;;;28.05;25.55;;;;;;;18.65;66.74;100067.88;128157;1098;22369;-75
2021/07/25 04:36:29;;;;;;;28.08;25.18;;;;;;;18.69;66.79;100071.72;128171;1097;22833;-75
2021/07/25 04:38:59;;;;;;;29.80;26.80;;;;;;;18.73;66.82;100075.64;128202;1096;22458;-77
2021/07/25 04:41:37;;;;;;;30.63;27.57;;;;;;;18.75;66.62;100076.20;128193;1097;22391;-76
2021/07/25 04:44:33;;;;;;;29.78;26.58;;;;;;;18.74;66.77;100079.94;128152;1098;23454;-76
2021/07/25 04:47:05;;;;;;;28.90;26.10;;;;;;;18.72;66.84;100074.80;127892;1098;24557;-75
2021/07/25 04:49:49;;;;;;;30.38;27.43;;;;;;;18.77;67.26;100079.48;127884;1098;24284;-77
2021/07/25 04:52:21;;;;;;;28.60;26.03;;;;;;;18.82;67.27;100087.63;127949;1098;22385;-75
2021/07/25 04:54:56;;;;;;;29.48;26.58;;;;;;;18.87;66.90;100084.28;127982;1099;22366;-75
2021/07/25 04:57:27;;;;;;;29.03;26.45;;;;;;;18.90;67.19;100075.80;127424;1101;22474;-75
2021/07/25 04:59:59;;;;;;;31.43;28.10;;;;;;;18.95;67.16;100081.27;127448;1101;24547;-75
2021/07/25 05:02:31;;;;;;;30.38;27.33;;;;;;;18.97;66.92;100079.99;127466;1101;22372;-75
2021/07/25 05:05:02;;;;;;;29.03;26.23;;;;;;;19.01;66.60;100083.84;127418;1101;22408;-75
2021/07/25 05:07:39;;;;;;;30.58;27.40;;;;;;;19.02;66.80;100077.43;127403;1101;24546;-75
2021/07/25 05:10:11;;;;;;;30.65;27.75;;;;;;;19.06;67.37;100077.81;127443;1101;22425;-76
2021/07/25 05:13:05;;;;;;;30.03;27.15;;;;;;;19.10;67.25;100078.98;127463;1101;22954;-76
2021/07/25 05:15:45;;;;;;;27.65;25.33;;;;;;;19.15;67.20;100081.77;127539;1098;22404;-75
2021/07/25 05:18:40;;;;;;;30.30;27.53;;;;;;;19.27;67.62;100076.44;127976;1099;22375;-76
2021/07/25 05:21:30;;;;;;;30.10;27.27;;;;;;;19.43;67.41;100078.43;127974;1098;22373;-75
2021/07/25 05:24:03;;;;;;;29.10;26.30;;;;;;;19.60;66.57;100073.19;127449;1101;22408;-75
2021/07/25 05:26:36;;;;;;;30.05;27.08;;;;;;;19.70;66.36;100073.44;127895;1101;23163;-76
2021/07/25 05:29:06;;;;;;;29.38;26.68;;;;;;;19.83;66.10;100074.25;128006;1100;22584;-75
2021/07/25 05:31:36;;;;;;;33.95;24.60;;;;;;;20.05;66.54;100080.60;127949;1101;22413;-76
2021/07/25 05:34:06;;;;;;;28.00;25.30;;;;;;;20.35;66.19;100072.34;127937;1101;22567;-76
2021/07/25 05:36:35;;;;;;;27.98;25.53;;;;;;;20.57;65.25;100069.05;127942;1101;22494;-76
2021/07/25 05:39:05;;;;;;;25.70;23.23;;;;;;;20.74;65.02;100083.31;127899;1099;22392;-75
2021/07/25 05:41:35;;;;;;;27.88;25.48;;;;;;;20.87;64.13;100071.45;127900;1100;24612;-75
2021/07/25 05:44:05;;;;;;;26.38;23.60;;;;;;;20.97;64.43;100068.14;127969;1100;23335;-76
2021/07/25 05:46:34;;;;;;;25.60;23.08;;;;;;;21.20;64.43;100069.86;127874;1101;22484;-76
2021/07/25 05:49:04;;;;;;;24.03;21.55;;;;;;;21.54;63.73;100065.28;127933;1101;24501;-76
2021/07/25 05:51:34;;;;;;;24.88;22.18;;;;;;;21.93;63.27;100076.85;127896;1099;22388;-76
2021/07/25 05:54:03;;;;;;;24.83;22.15;;;;;;;22.34;62.47;100074.67;127911;1100;22478;-76
2021/07/25 05:56:36;;;;;;;22.08;19.95;;;;;;;22.76;61.91;100085.63;127940;1101;25046;-76
2021/07/25 05:59:10;;;;;;;22.75;19.93;;;;;;;23.11;60.13;100078.95;127869;1101;22401;-76
2021/07/25 06:01:40;;;;;;;21.70;19.55;;;;;;;23.43;59.35;100075.42;128049;1098;22369;-77
2021/07/25 06:04:10;;;;;;;22.13;19.68;;;;;;;23.83;58.95;100093.76;128225;1096;22391;-76
2021/07/25 06:06:40;;;;;;;22.33;18.88;;;;;;;24.26;57.96;100097.19;128194;1097;22340;-76
2021/07/25 06:09:10;;;;;;;22.25;19.90;;;;;;;24.65;56.49;100092.17;128222;1097;22379;-77
2021/07/25 06:11:39;;;;;;;17.83;16.15;;;;;;;25.01;55.46;100094.13;128237;1098;22369;-77
2021/07/25 06:14:09;;;;;;;19.98;18.10;;;;;;;25.34;54.71;100090.90;128257;1098;22389;-77
2021/07/25 06:16:39;;;;;;;18.63;16.73;;;;;;;25.70;53.84;100096.26;128045;1098;22391;-77
2021/07/25 06:19:09;;;;;;;19.75;17.75;;;;;;;26.02;52.52;100101.34;128223;1096;22462;-77
2021/07/25 06:21:38;;;;;;;18.35;16.40;;;;;;;26.15;51.92;100099.11;128197;1098;23318;-76
2021/07/25 06:24:08;;;;;;;17.78;16.03;;;;;;;26.33;51.87;100094.98;128171;1098;22664;-77
2021/07/25 06:26:38;;;;;;;16.37;14.77;;;;;;;26.45;50.94;100095.44;128185;1097;24524;-77
2021/07/25 06:29:07;;;;;;;17.18;15.48;;;;;;;26.33;50.01;100087.66;128148;1098;22358;-77
2021/07/25 06:31:37;;;;;;;16.77;15.20;;;;;;;26.31;50.65;100097.16;128200;1098;22381;-76
2021/07/25 06:34:06;;;;;;;15.93;14.40;;;;;;;26.26;50.32;100095.29;127976;1098;22372;-76
2021/07/25 06:36:36;;;;;;;16.98;15.13;;;;;;;26.43;50.65;100094.93;128182;1096;22396;-76
2021/07/25 06:39:07;;;;;;;17.00;15.30;;;;;;;26.75;49.94;100100.70;128170;1098;22899;-75
2021/07/25 06:41:36;;;;;;;;;;;;;;;26.91;49.16;100092.47;128238;1097;22379;-76
2021/07/25 06:44:06;;;;;;;14.55;13.00;;;;;;;27.20;49.43;100093.36;128186;1097;21260;-76
2021/07/25 06:46:35;;;;;;;15.35;13.70;;;;;;;27.62;48.62;100096.47;128205;1097;22364;-76
2021/07/25 06:49:05;;;;;;;17.85;14.85;;;;;;;27.83;47.35;100094.40;128203;1098;22382;-75
2021/07/25 06:51:37;;;;;;;15.20;13.70;;;;;;;27.98;46.82;100082.55;128233;1098;22402;-77
2021/07/25 06:54:07;;;;;;;15.93;13.63;;;;;;;28.24;46.56;100081.13;128233;1098;22362;-75
2021/07/25 06:56:36;;;;;;;18.38;14.70;;;;;;;28.59;46.38;100079.02;128230;1096;22391;-77
2021/07/25 06:59:06;;;;;;;15.33;13.78;;;;;;;28.94;45.16;100080.39;128163;1097;22388;-77
2021/07/25 07:01:35;;;;;;;16.45;12.45;;;;;;;29.15;44.23;100077.36;128278;1098;22373;-77
2021/07/25 07:04:05;;;;;;;14.17;12.87;;;;;;;29.42;43.74;100082.05;128210;1098;22375;-77
2021/07/25 07:06:35;;;;;;;16.87;14.00;;;;;;;29.59;42.69;100082.30;128218;1098;22375;-78
2021/07/25 07:09:04;;;;;;;13.35;11.95;;;;;;;29.85;42.04;100076.38;128235;1096;22369;-77
2021/07/25 07:11:34;;;;;;;13.80;12.45;;;;;;;30.17;41.44;100075.45;128226;1098;22375;-78
2021/07/25 07:14:04;;;;;;;15.10;12.73;;;;;;;30.25;40.55;100072.02;128290;1097;22368;-77
2021/07/25 07:16:34;;;;;;;15.68;12.75;;;;;;;30.28;40.33;100076.86;128215;1098;22818;-77
2021/07/25 07:19:04;;;;;;;15.40;11.83;;;;;;;30.14;40.61;100063.23;128220;1098;22368;-77
2021/07/25 07:21:33;;;;;;;12.70;11.40;;;;;;;30.30;40.35;100074.64;128204;1098;22365;-77
2021/07/25 07:24:03;;;;;;;;;;;;;;;30.39;39.76;100078.27;128198;1096;25033;-77
2021/07/25 07:26:33;;;;;;;12.60;11.13;;;;;;;30.18;39.30;100079.77;128235;1098;22364;-78
2021/07/25 07:29:02;;;;;;;13.78;12.40;;;;;;;29.92;40.01;100077.57;128226;1096;22385;-78
2021/07/25 07:31:32;;;;;;;14.63;13.20;;;;;;;29.67;40.43;100076.17;128229;1098;22365;-79
2021/07/25 07:34:02;;;;;;;14.00;12.13;;;;;;;29.45;40.61;100087.70;128245;1097;22360;-78
2021/07/25 07:36:31;;;;;;;13.48;12.05;;;;;;;29.12;41.43;100083.40;128245;1097;22363;-77
2021/07/25 07:39:01;;;;;;;14.98;13.05;;;;;;;28.79;41.84;100088.78;128200;1098;24537;-77
2021/07/25 07:41:31;;;;;;;15.03;12.53;;;;;;;28.46;42.42;100083.31;128226;1098;22413;-77
2021/07/25 07:44:00;;;;;;;16.30;12.78;;;;;;;28.22;42.75;100094.17;128200;1098;22398;-77
2021/07/25 07:46:30;;;;;;;14.23;12.18;;;;;;;28.04;43.34;100098.48;128210;1095;23063;-77
2021/07/25 07:49:00;;;;;;;15.30;13.68;;;;;;;27.86;43.84;100091.91;128128;1098;24505;-77
2021/07/25 07:51:29;;;;;;;14.03;12.65;;;;;;;27.80;44.63;100084.92;128197;1098;22390;-77
2021/07/25 07:53:59;;;;;;;14.30;12.90;;;;;;;27.97;44.76;100091.80;128192;1098;22379;-78
2021/07/25 07:56:31;;;;;;;15.65;14.03;;;;;;;28.38;44.59;100086.63;128180;1098;22372;-77
2021/07/25 07:59:01;;;;;;;14.43;12.80;;;;;;;28.68;43.94;100095.48;128216;1098;22379;-78
2021/07/25 08:01:31;;;;;;;14.93;12.78;;;;;;;28.80;43.69;100087.70;128143;1098;22412;-78
2021/07/25 08:04:01;;;;;;;13.90;12.33;;;;;;;28.80;42.57;100095.86;128251;1098;22219;-78
2021/07/25 08:06:30;;;;;;;11.85;10.70;;;;;;;29.02;42.45;100098.80;128176;1096;24514;-78
2021/07/25 08:09:00;;;;;;;11.78;10.55;;;;;;;29.53;41.80;100094.39;128219;1098;22382;-77
2021/07/25 08:11:30;;;;;;;12.00;10.40;;;;;;;29.91;39.79;100095.03;128254;1095;22379;-77
2021/07/25 08:13:59;;;;;;;16.25;10.48;;;;;;;30.13;38.94;100093.52;128201;1098;22363;-77
2021/07/25 08:16:29;;;;;;;11.68;10.48;;;;;;;30.26;38.76;100092.72;128269;1095;22399;-78
2021/07/25 08:18:59;;;;;;;13.60;10.63;;;;;;;30.41;38.64;100097.82;128217;1095;22363;-78
2021/07/25 08:21:28;;;;;;;11.18;9.83;;;;;;;30.43;38.50;100092.88;128222;1095;22602;-78
2021/07/25 08:23:58;;;;;;;10.85;9.78;;;;;;;30.41;37.68;100092.38;128214;1095;22375;-77
2021/07/25 08:26:28;;;;;;;12.45;10.65;;;;;;;30.31;38.06;100098.05;128305;1095;22381;-77
2021/07/25 08:28:57;;;;;;;12.73;11.43;;;;;;;30.23;38.22;100096.05;128255;1097;22386;-77
2021/07/25 08:31:27;;;;;;;14.05;10.00;;;;;;;29.90;38.50;100098.87;128268;1095;22607;-77
2021/07/25 08:33:57;;;;;;;11.23;10.10;;;;;;;29.53;38.69;100094.39;128265;1095;24522;-77
2021/07/25 08:36:26;;;;;;;11.53;10.53;;;;;;;29.26;39.48;100093.23;128253;1095;22364;-77
2021/07/25 08:38:56;;;;;;;15.03;10.83;;;;;;;28.94;39.28;100099.43;128291;1096;22379;-77
2021/07/25 08:41:47;;;;;;;13.35;11.13;;;;;;;28.57;39.88;100101.07;128204;1098;22359;-77
2021/07/25 08:44:57;;;;;;;12.48;11.23;;;;;;;28.27;40.26;100096.03;128266;1098;24525;-75
2021/07/25 08:47:26;;;;;;;11.23;9.87;;;;;;;28.03;40.99;100099.59;127937;1098;22479;-75
2021/07/25 08:50:12;;;;;;;15.00;11.00;;;;;;;27.87;41.05;100090.80;127964;1098;22388;-75
2021/07/25 08:52:53;;;;;;;12.53;10.87;;;;;;;27.68;41.82;100100.75;127946;1098;24014;-76
2021/07/25 08:55:23;;;;;;;12.08;10.60;;;;;;;27.49;42.45;100103.41;128081;1100;22474;-77
2021/07/25 08:57:53;;;;;;;13.43;10.75;;;;;;;27.37;42.55;100101.06;127900;1101;24253;-77
2021/07/25 09:00:23;;;;;;;17.00;10.45;;;;;;;27.21;42.87;100103.09;127968;1098;22368;-77
2021/07/25 09:02:57;;;;;;;11.08;9.98;;;;;;;27.09;43.05;100104.52;127989;1098;22424;-78
2021/07/25 09:05:27;;;;;;;12.68;11.00;;;;;;;27.06;43.48;100100.50;128023;1098;24916;-77
2021/07/25 09:07:58;;;;;;;11.60;10.40;;;;;;;27.01;43.46;100105.14;128054;1098;22416;-77
2021/07/25 09:10:28;;;;;;;14.38;12.85;;;;;;;26.88;43.84;100103.88;127981;1099;24050;-77
2021/07/25 09:12:57;;;;;;;;;;;;;;;26.78;44.55;100107.47;127989;1099;24529;-78
2021/07/25 09:15:36;;;;;;;12.30;11.25;;;;;;;26.65;44.62;100117.02;127898;1101;22452;-78
2021/07/25 09:18:06;;;;;;;12.88;11.78;;;;;;;26.46;45.18;100113.34;127959;1098;22388;-78
2021/07/25 09:20:40;;;;;;;13.38;12.00;;;;;;;26.35;45.57;100117.97;127963;1098;22368;-78
2021/07/25 09:23:19;;;;;;;13.13;11.40;;;;;;;26.25;46.04;100121.53;128027;1100;22366;-76
2021/07/25 09:25:56;;;;;;;13.35;11.55;;;;;;;26.08;46.58;100129.19;128180;1098;24259;-78
2021/07/25 09:28:30;;;;;;;21.30;13.53;;;;;;;26.01;46.56;100118.65;128341;1098;22386;-76
2021/07/25 09:31:15;;;;;;;13.60;12.25;;;;;;;25.96;46.12;100125.99;128273;1098;24527;-78
2021/07/25 09:33:46;;;;;;;13.83;12.55;;;;;;;25.90;46.75;100122.48;128288;1098;22369;-77
2021/07/25 09:36:22;;;;;;;13.03;11.80;;;;;;;25.94;46.73;100130.86;128259;1096;22366;-77
2021/07/25 09:38:55;;;;;;;13.10;11.80;;;;;;;26.00;46.64;100124.35;128178;1096;22667;-78
2021/07/25 09:41:26;;;;;;;13.58;12.25;;;;;;;26.08;46.97;100123.77;128241;1098;22371;-77
2021/07/25 09:44:11;;;;;;;14.33;12.63;;;;;;;26.18;46.66;100121.02;128251;1096;22385;-77
2021/07/25 09:46:49;;;;;;;17.10;12.73;;;;;;;26.31;46.33;100126.94;128358;1097;25027;-77
2021/07/25 09:49:19;;;;;;;23.78;14.65;;;;;;;26.42;46.66;100121.18;128294;1096;22471;-77
2021/07/25 09:51:49;;;;;;;14.03;12.23;;;;;;;26.56;46.65;100120.59;128205;1098;22821;-77
2021/07/25 09:54:25;;;;;;;15.88;14.00;;;;;;;26.66;46.26;100128.70;128243;1096;22362;-77
2021/07/25 09:57:13;;;;;;;13.83;12.03;;;;;;;26.80;46.25;100128.88;128250;1096;22372;-77
2021/07/25 09:59:42;;;;;;;17.93;16.35;;;;;;;26.86;46.34;100116.92;128221;1097;22359;-77
2021/07/25 10:02:38;;;;;;;23.20;18.85;;;;;;;26.98;46.22;100120.06;128250;1098;22378;-77
2021/07/25 10:05:19;;;;;;;14.35;12.93;;;;;;;27.12;46.32;100123.73;128208;1098;22383;-77
2021/07/25 10:07:49;;;;;;;13.95;12.45;;;;;;;27.21;45.97;100129.41;128193;1098;25045;-78
2021/07/25 10:10:19;;;;;;;18.40;15.25;;;;;;;27.31;46.01;100125.80;128333;1098;22416;-78
2021/07/25 10:12:49;;;;;;;14.95;13.45;;;;;;;27.39;45.89;100128.73;128230;1098;22385;-77
2021/07/25 10:15:18;;;;;;;20.90;13.78;;;;;;;27.44;45.59;100125.95;128346;1097;22413;-77
2021/07/25 10:17:49;;;;;;;18.47;16.80;;;;;;;27.50;45.68;100126.72;128361;1098;22539;-77
2021/07/25 10:20:23;;;;;;;14.93;12.70;;;;;;;27.58;45.57;100128.00;128109;1101;23338;-77
2021/07/25 10:22:56;;;;;;;16.43;14.83;;;;;;;27.62;45.51;100132.58;128042;1098;22391;-78
2021/07/25 10:25:29;;;;;;;14.85;12.48;;;;;;;27.62;45.49;100129.03;127982;1101;22385;-78
2021/07/25 10:28:02;;;;;;;14.93;13.55;;;;;;;27.63;45.35;100126.05;128071;1101;24228;-78
2021/07/25 10:30:32;;;;;;;14.10;12.80;;;;;;;27.64;45.59;100116.00;128000;1101;22487;-77
2021/07/25 10:33:03;;;;;;;15.35;13.25;;;;;;;27.61;45.53;100130.95;128096;1101;22386;-78
2021/07/25 10:35:33;;;;;;;13.88;12.58;;;;;;;27.62;45.52;100123.61;127987;1098;22366;-77
2021/07/25 10:38:06;;;;;;;16.33;14.07;;;;;;;27.61;45.71;100124.71;128239;1098;23145;-77
2021/07/25 10:40:37;;;;;;;14.75;13.33;;;;;;;27.59;45.46;100130.44;128192;1098;24556;-76
2021/07/25 10:43:07;;;;;;;25.53;23.08;;;;;;;27.61;45.35;100125.52;128237;1096;22366;-77
2021/07/25 10:45:37;;;;;;;14.23;11.53;;;;;;;27.65;45.13;100118.41;128495;1098;22367;-77
2021/07/25 10:48:15;;;;;;;13.83;12.23;;;;;;;27.70;45.16;100120.28;128258;1098;22924;-77
2021/07/25 10:50:45;;;;;;;17.33;10.65;;;;;;;27.72;44.76;100117.27;128081;1098;22388;-77
2021/07/25 10:53:24;;;;;;;11.23;10.13;;;;;;;27.74;44.32;100121.32;128210;1098;25034;-76
2021/07/25 10:55:54;;;;;;;15.53;11.00;;;;;;;27.76;44.11;100121.89;128229;1098;22367;-77
2021/07/25 10:58:24;;;;;;;12.78;11.33;;;;;;;27.81;43.72;100134.58;128223;1098;22405;-77
2021/07/25 11:00:56;;;;;;;14.25;12.85;;;;;;;27.85;43.43;100127.47;128252;1098;22362;-77
2021/07/25 11:03:47;;;;;;;13.55;10.95;;;;;;;27.82;43.06;100130.77;128317;1098;22362;-77
2021/07/25 11:06:18;;;;;;;11.58;10.03;;;;;;;27.83;42.22;100133.20;127977;1101;22379;-77
2021/07/25 11:08:52;;;;;;;9.95;8.95;;;;;;;27.90;41.31;100130.14;127946;1098;22385;-77
2021/07/25 11:11:51;;;;;;;11.08;8.80;;;;;;;27.92;40.84;100119.79;127950;1097;24988;-76
2021/07/25 11:14:55;;;;;;;11.13;8.48;;;;;;;27.96;40.68;100125.45;127485;1101;22761;-78
2021/07/25 11:17:48;;;;;;;10.67;9.27;;;;;;;28.02;40.64;100118.87;127488;1101;22379;-78
2021/07/25 11:20:53;;;;;;;15.18;9.98;;;;;;;27.96;40.81;100120.85;127470;1101;22399;-78
2021/07/25 11:23:44;;;;;;;14.98;10.68;;;;;;;27.96;40.26;100118.14;127401;1101;22391;-78
2021/07/25 11:26:32;;;;;;;12.60;8.80;;;;;;;27.97;40.18;100116.23;127066;1105;22376;-78